createdAt,value
2016-09-26T00:00:35.900Z,1005.43
2016-09-26T00:01:35.925Z,1005.43
2016-09-26T00:02:35.943Z,1005.43
2016-09-26T00:03:35.958Z,1005.43
2016-09-26T00:04:35.983Z,1005.42
2016-09-26T00:05:36.000Z,1005.41
2016-09-26T00:06:36.022Z,1005.39
2016-09-26T00:07:36.042Z,1005.46
2016-09-26T00:08:36.061Z,1005.43
2016-09-26T00:09:36.083Z,1005.45
2016-09-26T00:10:36.106Z,1005.47
2016-09-26T00:11:36.120Z,1005.42
2016-09-26T00:12:36.145Z,1005.4
2016-09-26T00:13:36.162Z,1005.43
2016-09-26T00:14:36.184Z,1005.44
2016-09-26T00:15:36.202Z,1005.44
2016-09-26T00:16:36.221Z,1005.43
2016-09-26T00:17:36.246Z,1005.47
2016-09-26T00:18:36.268Z,1005.43
2016-09-26T00:19:36.284Z,1005.39
2016-09-26T00:20:36.310Z,1005.36
2016-09-26T00:21:36.324Z,1005.33
2016-09-26T00:22:36.345Z,1005.34
2016-09-26T00:23:36.367Z,1005.34
2016-09-26T00:24:36.393Z,1005.4
2016-09-26T00:25:36.402Z,1005.4
2016-09-26T00:26:36.426Z,1005.41
2016-09-26T00:27:36.447Z,1005.37
2016-09-26T00:28:36.465Z,1005.4
2016-09-26T00:29:36.485Z,1005.38
2016-09-26T00:30:36.509Z,1005.37
2016-09-26T00:31:36.526Z,1005.38
2016-09-26T00:32:36.545Z,1005.37
2016-09-26T00:33:36.570Z,1005.4
2016-09-26T00:34:36.587Z,1005.38
2016-09-26T00:35:36.604Z,1005.41
2016-09-26T00:36:36.627Z,1005.39
2016-09-26T00:37:36.651Z,1005.39
2016-09-26T00:38:36.671Z,1005.37
2016-09-26T00:39:36.692Z,1005.39
2016-09-26T00:40:36.709Z,1005.39
2016-09-26T00:41:36.727Z,1005.37
2016-09-26T00:42:36.752Z,1005.41
2016-09-26T00:43:36.766Z,1005.37
2016-09-26T00:44:36.788Z,1005.39
2016-09-26T00:45:36.811Z,1005.4
2016-09-26T00:46:36.831Z,1005.41
2016-09-26T00:47:36.853Z,1005.44
2016-09-26T00:48:36.869Z,1005.44
2016-09-26T00:49:36.889Z,1005.5
2016-09-26T00:50:36.911Z,1005.53
2016-09-26T00:51:36.930Z,1005.53
2016-09-26T00:52:36.948Z,1005.56
2016-09-26T00:53:36.972Z,1005.55
2016-09-26T00:54:36.994Z,1005.54
2016-09-26T00:55:37.016Z,1005.56
2016-09-26T00:56:37.034Z,1005.56
2016-09-26T00:57:37.065Z,1005.61
2016-09-26T00:58:37.070Z,1005.63
2016-09-26T00:59:37.095Z,1005.6
2016-09-26T01:00:37.114Z,1005.56
2016-09-26T01:01:37.136Z,1005.58
2016-09-26T01:02:37.154Z,1005.55
2016-09-26T01:03:37.181Z,1005.56
2016-09-26T01:04:37.190Z,1005.54
2016-09-26T01:05:37.212Z,1005.53
2016-09-26T01:06:37.237Z,1005.5
2016-09-26T01:07:37.260Z,1005.48
2016-09-26T01:08:37.279Z,1005.5
2016-09-26T01:09:37.296Z,1005.49
2016-09-26T01:10:37.312Z,1005.45
2016-09-26T01:11:37.338Z,1005.51
2016-09-26T01:12:37.356Z,1005.46
2016-09-26T01:13:37.381Z,1005.47
2016-09-26T01:14:37.400Z,1005.46
2016-09-26T01:15:37.412Z,1005.5
2016-09-26T01:16:37.433Z,1005.52
2016-09-26T01:17:37.454Z,1005.55
2016-09-26T01:18:37.475Z,1005.57
2016-09-26T01:19:37.496Z,1005.52
2016-09-26T01:20:37.520Z,1005.54
2016-09-26T01:21:37.537Z,1005.59
2016-09-26T01:22:37.560Z,1005.6
2016-09-26T01:23:37.578Z,1005.55
2016-09-26T01:24:37.594Z,1005.6
2016-09-26T01:25:37.618Z,1005.61
2016-09-26T01:26:37.652Z,1005.58
2016-09-26T01:27:37.659Z,1005.56
2016-09-26T01:28:37.677Z,1005.55
2016-09-26T01:29:37.694Z,1005.53
2016-09-26T01:30:37.718Z,1005.55
2016-09-26T01:31:37.740Z,1005.57
2016-09-26T01:32:37.760Z,1005.54
2016-09-26T01:33:37.777Z,1005.58
2016-09-26T01:34:37.800Z,1005.54
2016-09-26T01:35:37.819Z,1005.55
2016-09-26T01:36:37.841Z,1005.56
2016-09-26T01:37:37.854Z,1005.55
2016-09-26T01:38:37.877Z,1005.55
2016-09-26T01:39:37.901Z,1005.56
2016-09-26T01:40:37.919Z,1005.55
2016-09-26T01:41:37.940Z,1005.54
2016-09-26T01:42:37.960Z,1005.52
2016-09-26T01:43:37.979Z,1005.54
2016-09-26T01:44:38.001Z,1005.52
2016-09-26T01:45:38.015Z,1005.48
2016-09-26T01:46:38.039Z,1005.53
2016-09-26T01:47:38.057Z,1005.5
2016-09-26T01:48:38.080Z,1005.52
2016-09-26T01:49:38.096Z,1005.52
2016-09-26T01:50:38.113Z,1005.52
2016-09-26T01:51:38.141Z,1005.55
2016-09-26T01:52:38.160Z,1005.57
2016-09-26T01:53:38.176Z,1005.56
2016-09-26T01:54:38.193Z,1005.57
2016-09-26T01:55:38.221Z,1005.51
2016-09-26T01:56:38.240Z,1005.5
2016-09-26T01:57:38.256Z,1005.47
2016-09-26T01:58:38.277Z,1005.47
2016-09-26T01:59:38.293Z,1005.48
2016-09-26T02:00:38.315Z,1005.5
2016-09-26T02:01:38.339Z,1005.55
2016-09-26T02:02:38.356Z,1005.55
2016-09-26T02:03:38.380Z,1005.59
2016-09-26T02:04:38.396Z,1005.55
2016-09-26T02:05:38.420Z,1005.56
2016-09-26T02:06:38.439Z,1005.56
2016-09-26T02:07:38.461Z,1005.56
2016-09-26T02:08:38.477Z,1005.56
2016-09-26T02:09:38.496Z,1005.57
2016-09-26T02:10:38.517Z,1005.6
2016-09-26T02:11:38.540Z,1005.63
2016-09-26T02:12:38.553Z,1005.64
2016-09-26T02:13:38.575Z,1005.68
2016-09-26T02:14:38.596Z,1005.66
2016-09-26T02:15:38.619Z,1005.69
2016-09-26T02:16:38.636Z,1005.7
2016-09-26T02:17:38.658Z,1005.72
2016-09-26T02:18:38.674Z,1005.73
2016-09-26T02:19:38.702Z,1005.71
2016-09-26T02:20:38.721Z,1005.75
2016-09-26T02:21:38.734Z,1005.79
2016-09-26T02:22:38.754Z,1005.79
2016-09-26T02:23:38.781Z,1005.77
2016-09-26T02:24:38.803Z,1005.78
2016-09-26T02:25:38.816Z,1005.76
2016-09-26T02:26:38.841Z,1005.75
2016-09-26T02:27:38.860Z,1005.79
2016-09-26T02:28:38.883Z,1005.75
2016-09-26T02:29:38.898Z,1005.74
2016-09-26T02:30:38.914Z,1005.72
2016-09-26T02:31:38.939Z,1005.77
2016-09-26T02:32:38.955Z,1005.78
2016-09-26T02:33:38.977Z,1005.78
2016-09-26T02:34:39.002Z,1005.82
2016-09-26T02:35:39.018Z,1005.8
2016-09-26T02:36:39.036Z,1005.8
2016-09-26T02:37:39.056Z,1005.79
2016-09-26T02:38:39.082Z,1005.8
2016-09-26T02:39:39.097Z,1005.81
2016-09-26T02:40:39.120Z,1005.78
2016-09-26T02:41:39.136Z,1005.8
2016-09-26T02:42:39.161Z,1005.81
2016-09-26T02:43:39.174Z,1005.8
2016-09-26T02:44:39.197Z,1005.83
2016-09-26T02:45:39.220Z,1005.79
2016-09-26T02:46:39.241Z,1005.76
2016-09-26T02:47:39.260Z,1005.71
2016-09-26T02:48:39.277Z,1005.73
2016-09-26T02:49:39.300Z,1005.71
2016-09-26T02:50:39.320Z,1005.75
2016-09-26T02:51:39.338Z,1005.78
2016-09-26T02:52:39.359Z,1005.83
2016-09-26T02:53:39.378Z,1005.82
2016-09-26T02:54:39.397Z,1005.86
2016-09-26T02:55:39.417Z,1005.87
2016-09-26T02:56:39.442Z,1005.84
2016-09-26T02:57:39.463Z,1005.84
2016-09-26T02:58:39.480Z,1005.83
2016-09-26T02:59:39.499Z,1005.86
2016-09-26T03:00:39.521Z,1005.86
2016-09-26T03:01:39.539Z,1005.92
2016-09-26T03:02:39.555Z,1005.88
2016-09-26T03:03:39.578Z,1005.86
2016-09-26T03:04:39.603Z,1005.89
2016-09-26T03:05:39.614Z,1005.87
2016-09-26T03:06:39.638Z,1005.86
2016-09-26T03:07:39.661Z,1005.87
2016-09-26T03:08:39.678Z,1005.86
2016-09-26T03:09:39.702Z,1005.86
2016-09-26T03:10:39.714Z,1005.85
2016-09-26T03:11:39.740Z,1005.89
2016-09-26T03:12:39.760Z,1005.9
2016-09-26T03:13:39.783Z,1005.94
2016-09-26T03:14:39.794Z,1005.97
2016-09-26T03:15:39.815Z,1005.99
2016-09-26T03:16:39.839Z,1005.98
2016-09-26T03:17:39.861Z,1005.97
2016-09-26T03:18:39.876Z,1005.98
2016-09-26T03:19:39.901Z,1006.02
2016-09-26T03:20:39.920Z,1006.02
2016-09-26T03:21:39.941Z,1005.97
2016-09-26T03:22:39.957Z,1005.99
2016-09-26T03:23:39.978Z,1005.98
2016-09-26T03:24:39.996Z,1006.03
2016-09-26T03:25:40.020Z,1006.01
2016-09-26T03:26:40.042Z,1006.05
2016-09-26T03:27:40.053Z,1006.03
2016-09-26T03:28:40.073Z,1006.01
2016-09-26T03:29:40.094Z,1005.99
2016-09-26T03:30:40.119Z,1006.02
2016-09-26T03:31:40.136Z,1005.97
2016-09-26T03:32:40.159Z,1006.01
2016-09-26T03:33:40.177Z,1005.98
2016-09-26T03:34:40.199Z,1005.96
2016-09-26T03:35:40.219Z,1006.02
2016-09-26T03:36:40.235Z,1006.06
2016-09-26T03:37:40.256Z,1006.01
2016-09-26T03:38:40.277Z,1006.05
2016-09-26T03:39:40.301Z,1006.07
2016-09-26T03:40:40.322Z,1006.09
2016-09-26T03:41:40.339Z,1006.12
2016-09-26T03:42:40.360Z,1006.08
2016-09-26T03:43:40.382Z,1006.13
2016-09-26T03:44:40.400Z,1006.09
2016-09-26T03:45:40.419Z,1006.17
2016-09-26T03:46:40.437Z,1006.14
2016-09-26T03:47:40.458Z,1006.16
2016-09-26T03:48:40.479Z,1006.14
2016-09-26T03:49:40.498Z,1006.12
2016-09-26T03:50:40.514Z,1006.09
2016-09-26T03:51:40.538Z,1006.08
2016-09-26T03:52:40.560Z,1006.05
2016-09-26T03:53:40.576Z,1006.07
2016-09-26T03:54:40.594Z,1006.05
2016-09-26T03:55:40.620Z,1006.06
2016-09-26T03:56:40.640Z,1006.08
2016-09-26T03:57:40.658Z,1006.07
2016-09-26T03:58:40.675Z,1006.04
2016-09-26T03:59:40.702Z,1006.02
2016-09-26T04:01:40.727Z,1006.05
2016-09-26T04:02:40.750Z,1006.06
2016-09-26T04:03:40.773Z,1006.07
2016-09-26T04:04:40.791Z,1006.13
2016-09-26T04:05:40.814Z,1006.13
2016-09-26T04:06:40.836Z,1006.08
2016-09-26T04:07:40.850Z,1006.1
2016-09-26T04:08:40.868Z,1006.09
2016-09-26T04:09:40.888Z,1006.12
2016-09-26T04:10:40.913Z,1006.12
2016-09-26T04:11:40.925Z,1006.11
2016-09-26T04:12:40.948Z,1006.11
2016-09-26T04:13:40.970Z,1006.12
2016-09-26T04:14:40.995Z,1006.1
2016-09-26T04:15:41.010Z,1006.11
2016-09-26T04:16:41.031Z,1006.07
2016-09-26T04:17:41.053Z,1006.06
2016-09-26T04:18:41.072Z,1006.06
2016-09-26T04:19:41.092Z,1006.06
2016-09-26T04:20:41.110Z,1006.09
2016-09-26T04:21:41.127Z,1006.11
2016-09-26T04:22:41.149Z,1006.13
2016-09-26T04:23:41.169Z,1006.09
2016-09-26T04:24:41.184Z,1006.11
2016-09-26T04:25:41.211Z,1006.1
2016-09-26T04:26:41.231Z,1006.13
2016-09-26T04:27:41.244Z,1006.13
2016-09-26T04:28:41.269Z,1006.15
2016-09-26T04:29:41.285Z,1006.19
2016-09-26T04:30:41.308Z,1006.2
2016-09-26T04:31:41.330Z,1006.23
2016-09-26T04:32:41.341Z,1006.21
2016-09-26T04:33:41.369Z,1006.17
2016-09-26T04:34:41.387Z,1006.14
2016-09-26T04:35:41.410Z,1006.16
2016-09-26T04:36:41.425Z,1006.18
2016-09-26T04:37:41.443Z,1006.15
2016-09-26T04:38:41.464Z,1006.11
2016-09-26T04:39:41.490Z,1006.12
2016-09-26T04:40:41.507Z,1006.13
2016-09-26T04:41:41.528Z,1006.2
2016-09-26T04:42:41.547Z,1006.19
2016-09-26T04:43:41.571Z,1006.19
2016-09-26T04:44:41.580Z,1006.2
2016-09-26T04:45:41.604Z,1006.18
2016-09-26T04:46:41.626Z,1006.2
2016-09-26T04:47:41.643Z,1006.2
2016-09-26T04:48:41.663Z,1006.19
2016-09-26T04:49:41.680Z,1006.17
2016-09-26T04:50:41.708Z,1006.14
2016-09-26T04:51:41.727Z,1006.21
2016-09-26T04:52:41.747Z,1006.19
2016-09-26T04:53:41.767Z,1006.21
2016-09-26T04:54:41.788Z,1006.22
2016-09-26T04:55:41.805Z,1006.24
2016-09-26T04:56:41.825Z,1006.24
2016-09-26T04:57:41.847Z,1006.28
2016-09-26T04:58:41.864Z,1006.3
2016-09-26T04:59:41.883Z,1006.33
2016-09-26T05:00:41.902Z,1006.31
2016-09-26T05:01:41.920Z,1006.34
2016-09-26T05:02:41.943Z,1006.29
2016-09-26T05:03:41.958Z,1006.35
2016-09-26T05:04:41.984Z,1006.29
2016-09-26T05:05:42.005Z,1006.31
2016-09-26T05:06:42.020Z,1006.32
2016-09-26T05:07:42.038Z,1006.33
2016-09-26T05:08:42.061Z,1006.32
2016-09-26T05:09:42.081Z,1006.34
2016-09-26T05:10:42.099Z,1006.33
2016-09-26T05:11:42.117Z,1006.3
2016-09-26T05:12:42.142Z,1006.32
2016-09-26T05:13:42.164Z,1006.26
2016-09-26T05:14:42.183Z,1006.28
2016-09-26T05:15:42.199Z,1006.29
2016-09-26T05:16:42.222Z,1006.27
2016-09-26T05:17:42.244Z,1006.29
2016-09-26T05:18:42.263Z,1006.3
2016-09-26T05:19:42.282Z,1006.37
2016-09-26T05:20:42.300Z,1006.33
2016-09-26T05:21:42.323Z,1006.38
2016-09-26T05:22:42.338Z,1006.36
2016-09-26T05:23:42.360Z,1006.38
2016-09-26T05:24:42.376Z,1006.37
2016-09-26T05:25:42.403Z,1006.42
2016-09-26T05:26:42.420Z,1006.43
2016-09-26T05:27:42.445Z,1006.46
2016-09-26T05:28:42.457Z,1006.42
2016-09-26T05:29:42.482Z,1006.41
2016-09-26T05:30:42.500Z,1006.45
2016-09-26T05:31:42.514Z,1006.39
2016-09-26T05:32:42.541Z,1006.43
2016-09-26T05:33:42.561Z,1006.42
2016-09-26T05:34:42.584Z,1006.45
2016-09-26T05:35:42.599Z,1006.49
2016-09-26T05:36:42.618Z,1006.46
2016-09-26T05:37:42.642Z,1006.49
2016-09-26T05:38:42.659Z,1006.46
2016-09-26T05:39:42.673Z,1006.47
2016-09-26T05:40:42.698Z,1006.46
2016-09-26T05:41:42.719Z,1006.43
2016-09-26T05:42:42.737Z,1006.48
2016-09-26T05:43:42.756Z,1006.42
2016-09-26T05:44:42.775Z,1006.43
2016-09-26T05:45:42.797Z,1006.44
2016-09-26T05:46:42.819Z,1006.49
2016-09-26T05:47:42.832Z,1006.47
2016-09-26T05:48:42.856Z,1006.51
2016-09-26T05:49:42.873Z,1006.51
2016-09-26T05:50:42.895Z,1006.5
2016-09-26T05:51:42.916Z,1006.52
2016-09-26T05:52:42.941Z,1006.5
2016-09-26T05:53:42.959Z,1006.5
2016-09-26T05:54:42.974Z,1006.53
2016-09-26T05:55:42.997Z,1006.52
2016-09-26T05:56:43.020Z,1006.54
2016-09-26T05:57:43.035Z,1006.52
2016-09-26T05:58:43.058Z,1006.51
2016-09-26T05:59:43.079Z,1006.55
2016-09-26T06:00:43.100Z,1006.57
2016-09-26T06:01:43.117Z,1006.57
2016-09-26T06:02:43.141Z,1006.53
2016-09-26T06:03:43.158Z,1006.55
2016-09-26T06:04:43.175Z,1006.53
2016-09-26T06:05:43.195Z,1006.55
2016-09-26T06:06:43.222Z,1006.62
2016-09-26T06:07:43.232Z,1006.57
2016-09-26T06:08:43.253Z,1006.56
2016-09-26T06:09:43.289Z,1006.64
2016-09-26T06:10:43.295Z,1006.58
2016-09-26T06:11:43.318Z,1006.62
2016-09-26T06:12:43.336Z,1006.59
2016-09-26T06:13:43.357Z,1006.59
2016-09-26T06:14:43.375Z,1006.59
2016-09-26T06:15:43.402Z,1006.62
2016-09-26T06:16:43.423Z,1006.62
2016-09-26T06:17:43.443Z,1006.6
2016-09-26T06:18:43.460Z,1006.59
2016-09-26T06:19:43.476Z,1006.58
2016-09-26T06:20:43.502Z,1006.61
2016-09-26T06:21:43.520Z,1006.66
2016-09-26T06:22:43.539Z,1006.65
2016-09-26T06:23:43.555Z,1006.64
2016-09-26T06:24:43.581Z,1006.65
2016-09-26T06:25:43.615Z,1006.65
2016-09-26T06:26:43.628Z,1006.67
2016-09-26T06:27:43.641Z,1006.68
2016-09-26T06:28:43.656Z,1006.61
2016-09-26T06:29:43.682Z,1006.64
2016-09-26T06:30:43.702Z,1006.63
2016-09-26T06:31:43.720Z,1006.66
2016-09-26T06:32:43.738Z,1006.63
2016-09-26T06:33:43.759Z,1006.63
2016-09-26T06:34:43.775Z,1006.62
2016-09-26T06:35:43.801Z,1006.63
2016-09-26T06:36:43.821Z,1006.6
2016-09-26T06:37:43.835Z,1006.61
2016-09-26T06:38:43.854Z,1006.62
2016-09-26T06:39:43.883Z,1006.63
2016-09-26T06:40:43.898Z,1006.64
2016-09-26T06:41:43.922Z,1006.66
2016-09-26T06:42:43.944Z,1006.64
2016-09-26T06:43:43.962Z,1006.67
2016-09-26T06:44:43.980Z,1006.66
2016-09-26T06:45:43.998Z,1006.7
2016-09-26T06:46:44.021Z,1006.75
2016-09-26T06:47:44.042Z,1006.75
2016-09-26T06:48:44.059Z,1006.75
2016-09-26T06:49:44.084Z,1006.74
2016-09-26T06:50:44.099Z,1006.73
2016-09-26T06:51:44.122Z,1006.75
2016-09-26T06:52:44.144Z,1006.76
2016-09-26T06:53:44.165Z,1006.75
2016-09-26T06:54:44.187Z,1006.75
2016-09-26T06:55:44.198Z,1006.75
2016-09-26T06:56:44.228Z,1006.8
2016-09-26T06:57:44.275Z,1006.79
2016-09-26T06:58:44.308Z,1006.79
2016-09-26T06:59:44.286Z,1006.79
2016-09-26T07:00:44.302Z,1006.82
2016-09-26T07:01:44.370Z,1006.82
2016-09-26T07:02:44.379Z,1006.88
2016-09-26T07:03:44.365Z,1006.87
2016-09-26T07:04:44.387Z,1006.87
2016-09-26T07:05:44.413Z,1006.87
2016-09-26T07:06:44.434Z,1006.87
2016-09-26T07:07:44.449Z,1006.88
2016-09-26T07:08:44.471Z,1006.85
2016-09-26T07:09:44.489Z,1006.88
2016-09-26T07:10:44.509Z,1006.85
2016-09-26T07:11:44.529Z,1006.89
2016-09-26T07:12:44.552Z,1006.87
2016-09-26T07:13:44.573Z,1006.88
2016-09-26T07:14:44.593Z,1006.86
2016-09-26T07:15:44.614Z,1006.89
2016-09-26T07:16:44.638Z,1006.9
2016-09-26T07:17:44.652Z,1006.89
2016-09-26T07:18:44.679Z,1006.86
2016-09-26T07:19:44.700Z,1006.92
2016-09-26T07:20:44.726Z,1006.92
2016-09-26T07:21:44.743Z,1006.89
2016-09-26T07:22:44.761Z,1006.93
2016-09-26T07:23:44.779Z,1006.95
2016-09-26T07:24:44.801Z,1006.98
2016-09-26T07:25:44.820Z,1006.96
2016-09-26T07:26:44.842Z,1007.02
2016-09-26T07:27:44.868Z,1007
2016-09-26T07:28:44.881Z,1007.01
2016-09-26T07:29:44.903Z,1007
2016-09-26T07:30:44.929Z,1007.01
2016-09-26T07:31:44.949Z,1007.01
2016-09-26T07:32:44.961Z,1007.03
2016-09-26T07:33:44.995Z,1007.07
2016-09-26T07:34:45.014Z,1007.11
2016-09-26T07:35:45.027Z,1007.09
2016-09-26T07:36:45.051Z,1007.14
2016-09-26T07:37:45.069Z,1007.11
2016-09-26T07:38:45.093Z,1007.13
2016-09-26T07:39:45.111Z,1007.18
2016-09-26T07:40:45.136Z,1007.19
2016-09-26T07:41:45.149Z,1007.14
2016-09-26T07:42:45.175Z,1007.2
2016-09-26T07:43:45.198Z,1007.17
2016-09-26T07:44:45.213Z,1007.2
2016-09-26T07:45:45.236Z,1007.19
2016-09-26T07:46:45.260Z,1007.2
2016-09-26T07:47:45.280Z,1007.19
2016-09-26T07:48:45.301Z,1007.24
2016-09-26T07:49:45.323Z,1007.28
2016-09-26T07:50:45.342Z,1007.21
2016-09-26T07:51:45.359Z,1007.25
2016-09-26T07:52:45.380Z,1007.28
2016-09-26T07:53:45.400Z,1007.28
2016-09-26T07:54:45.422Z,1007.3
2016-09-26T07:55:45.444Z,1007.23
2016-09-26T07:56:45.466Z,1007.24
2016-09-26T07:57:45.487Z,1007.29
2016-09-26T07:58:45.502Z,1007.27
2016-09-26T07:59:45.528Z,1007.24
2016-09-26T08:00:45.556Z,1007.26
2016-09-26T08:01:45.569Z,1007.28
2016-09-26T08:02:45.589Z,1007.26
2016-09-26T08:03:45.605Z,1007.26
2016-09-26T08:04:45.632Z,1007.24
2016-09-26T08:05:45.652Z,1007.27
2016-09-26T08:06:45.667Z,1007.3
2016-09-26T08:07:45.689Z,1007.26
2016-09-26T08:08:45.715Z,1007.24
2016-09-26T08:09:45.735Z,1007.25
2016-09-26T08:10:45.750Z,1007.25
2016-09-26T08:11:45.772Z,1007.25
2016-09-26T08:12:45.796Z,1007.28
2016-09-26T08:13:45.817Z,1007.26
2016-09-26T08:14:45.837Z,1007.32
2016-09-26T08:15:45.854Z,1007.3
2016-09-26T08:16:45.875Z,1007.31
2016-09-26T08:17:45.899Z,1007.33
2016-09-26T08:18:45.923Z,1007.35
2016-09-26T08:19:45.941Z,1007.31
2016-09-26T08:20:45.956Z,1007.35
2016-09-26T08:21:45.980Z,1007.31
2016-09-26T08:22:46.005Z,1007.33
2016-09-26T08:23:46.018Z,1007.31
2016-09-26T08:24:46.045Z,1007.33
2016-09-26T08:25:46.067Z,1007.32
2016-09-26T08:26:46.081Z,1007.32
2016-09-26T08:27:46.102Z,1007.3
2016-09-26T08:28:46.129Z,1007.31
2016-09-26T08:29:46.156Z,1007.3
2016-09-26T08:30:46.167Z,1007.3
2016-09-26T08:31:46.185Z,1007.3
2016-09-26T08:32:46.203Z,1007.32
2016-09-26T08:33:46.229Z,1007.35
2016-09-26T08:34:46.250Z,1007.37
2016-09-26T08:35:46.273Z,1007.38
2016-09-26T08:36:46.288Z,1007.36
2016-09-26T08:37:46.311Z,1007.38
2016-09-26T08:38:46.330Z,1007.38
2016-09-26T08:39:46.355Z,1007.41
2016-09-26T08:40:46.370Z,1007.42
2016-09-26T08:41:46.385Z,1007.39
2016-09-26T08:42:46.412Z,1007.44
2016-09-26T08:43:46.433Z,1007.42
2016-09-26T08:44:46.450Z,1007.39
2016-09-26T08:45:46.470Z,1007.4
2016-09-26T08:46:46.497Z,1007.39
2016-09-26T08:47:46.517Z,1007.41
2016-09-26T08:48:46.539Z,1007.4
2016-09-26T08:49:46.557Z,1007.41
2016-09-26T08:50:46.581Z,1007.43
2016-09-26T08:51:46.602Z,1007.46
2016-09-26T08:52:46.613Z,1007.46
2016-09-26T08:53:46.640Z,1007.46
2016-09-26T08:54:46.658Z,1007.46
2016-09-26T08:55:46.676Z,1007.49
2016-09-26T08:56:46.701Z,1007.51
2016-09-26T08:57:46.722Z,1007.51
2016-09-26T08:58:46.741Z,1007.49
2016-09-26T08:59:46.758Z,1007.47
2016-09-26T09:00:46.786Z,1007.49
2016-09-26T09:01:46.804Z,1007.48
2016-09-26T09:02:46.825Z,1007.45
2016-09-26T09:03:46.849Z,1007.49
2016-09-26T09:04:46.870Z,1007.47
2016-09-26T09:05:46.886Z,1007.49
2016-09-26T09:06:46.905Z,1007.44
2016-09-26T09:07:46.932Z,1007.45
2016-09-26T09:08:46.953Z,1007.48
2016-09-26T09:09:46.970Z,1007.47
2016-09-26T09:10:46.993Z,1007.49
2016-09-26T09:11:47.020Z,1007.49
2016-09-26T09:12:47.036Z,1007.48
2016-09-26T09:13:47.054Z,1007.52
2016-09-26T09:14:47.078Z,1007.47
2016-09-26T09:15:47.101Z,1007.48
2016-09-26T09:16:47.117Z,1007.5
2016-09-26T09:17:47.139Z,1007.51
2016-09-26T09:18:47.163Z,1007.49
2016-09-26T09:19:47.185Z,1007.5
2016-09-26T09:20:47.204Z,1007.53
2016-09-26T09:21:47.225Z,1007.57
2016-09-26T09:22:47.249Z,1007.53
2016-09-26T09:23:47.264Z,1007.54
2016-09-26T09:24:47.287Z,1007.57
2016-09-26T09:25:47.312Z,1007.61
2016-09-26T09:26:47.328Z,1007.56
2016-09-26T09:27:47.353Z,1007.59
2016-09-26T09:28:47.368Z,1007.62
2016-09-26T09:29:47.392Z,1007.6
2016-09-26T09:30:47.410Z,1007.66
2016-09-26T09:31:47.436Z,1007.69
2016-09-26T09:32:47.460Z,1007.68
2016-09-26T09:33:47.480Z,1007.69
2016-09-26T09:34:47.500Z,1007.77
2016-09-26T09:35:47.524Z,1007.75
2016-09-26T09:36:47.540Z,1007.75
2016-09-26T09:37:47.561Z,1007.69
2016-09-26T09:38:47.589Z,1007.67
2016-09-26T09:39:47.612Z,1007.71
2016-09-26T09:40:47.633Z,1007.68
2016-09-26T09:41:47.647Z,1007.68
2016-09-26T09:42:47.674Z,1007.67
2016-09-26T09:43:47.694Z,1007.67
2016-09-26T09:44:47.719Z,1007.66
2016-09-26T09:45:47.738Z,1007.63
2016-09-26T09:46:47.758Z,1007.68
2016-09-26T09:47:47.779Z,1007.71
2016-09-26T09:48:47.805Z,1007.76
2016-09-26T09:49:47.828Z,1007.69
2016-09-26T09:50:47.844Z,1007.78
2016-09-26T09:51:47.863Z,1007.79
2016-09-26T09:52:47.902Z,1007.81
2016-09-26T09:53:47.915Z,1007.82
2016-09-26T09:54:47.933Z,1007.84
2016-09-26T09:55:47.955Z,1007.76
2016-09-26T09:56:47.974Z,1007.74
2016-09-26T09:57:47.998Z,1007.74
2016-09-26T09:58:48.025Z,1007.71
2016-09-26T09:59:48.042Z,1007.68
2016-09-26T10:00:48.070Z,1007.66
2016-09-26T10:01:48.088Z,1007.64
2016-09-26T10:02:48.113Z,1007.65
2016-09-26T10:03:48.135Z,1007.59
2016-09-26T10:04:48.156Z,1007.61
2016-09-26T10:05:48.175Z,1007.62
2016-09-26T10:06:48.202Z,1007.6
2016-09-26T10:07:48.219Z,1007.58
2016-09-26T10:08:48.243Z,1007.58
2016-09-26T10:09:48.270Z,1007.59
2016-09-26T10:10:48.285Z,1007.58
2016-09-26T10:11:48.316Z,1007.61
2016-09-26T10:12:48.335Z,1007.65
2016-09-26T10:13:48.350Z,1007.67
2016-09-26T10:14:48.382Z,1007.66
2016-09-26T10:15:48.403Z,1007.72
2016-09-26T10:16:48.424Z,1007.67
2016-09-26T10:17:48.442Z,1007.67
2016-09-26T10:18:48.467Z,1007.7
2016-09-26T10:19:48.490Z,1007.64
2016-09-26T10:20:48.509Z,1007.66
2016-09-26T10:21:48.536Z,1007.66
2016-09-26T10:22:48.560Z,1007.67
2016-09-26T10:23:48.580Z,1007.59
2016-09-26T10:24:48.600Z,1007.61
2016-09-26T10:25:48.625Z,1007.63
2016-09-26T10:26:48.646Z,1007.67
2016-09-26T10:27:48.671Z,1007.68
2016-09-26T10:28:48.688Z,1007.71
2016-09-26T10:29:48.710Z,1007.7
2016-09-26T10:30:48.740Z,1007.75
2016-09-26T10:31:48.759Z,1007.65
2016-09-26T10:32:48.777Z,1007.67
2016-09-26T10:33:48.805Z,1007.67
2016-09-26T10:34:48.831Z,1007.63
2016-09-26T10:35:48.852Z,1007.6
2016-09-26T10:36:48.870Z,1007.58
2016-09-26T10:37:48.895Z,1007.58
2016-09-26T10:38:48.912Z,1007.54
2016-09-26T10:39:48.942Z,1007.53
2016-09-26T10:40:48.965Z,1007.51
2016-09-26T10:41:48.988Z,1007.58
2016-09-26T10:42:49.004Z,1007.58
2016-09-26T10:43:49.035Z,1007.6
2016-09-26T10:44:49.056Z,1007.61
2016-09-26T10:45:49.070Z,1007.63
2016-09-26T10:46:49.102Z,1007.67
2016-09-26T10:47:49.122Z,1007.67
2016-09-26T10:48:49.140Z,1007.56
2016-09-26T10:49:49.165Z,1007.59
2016-09-26T10:50:49.192Z,1007.66
2016-09-26T10:51:49.215Z,1007.6
2016-09-26T10:52:49.238Z,1007.62
2016-09-26T10:53:49.261Z,1007.57
2016-09-26T10:54:49.283Z,1007.53
2016-09-26T10:55:49.307Z,1007.51
2016-09-26T10:56:49.327Z,1007.49
2016-09-26T10:57:49.354Z,1007.49
2016-09-26T10:58:49.375Z,1007.48
2016-09-26T10:59:49.393Z,1007.48
2016-09-26T11:00:49.416Z,1007.44
2016-09-26T11:01:49.445Z,1007.46
2016-09-26T11:02:49.462Z,1007.43
2016-09-26T11:03:49.492Z,1007.41
2016-09-26T11:04:49.506Z,1007.4
2016-09-26T11:05:49.532Z,1007.46
2016-09-26T11:06:49.558Z,1007.4
2016-09-26T11:07:49.576Z,1007.4
2016-09-26T11:08:49.601Z,1007.4
2016-09-26T11:09:49.616Z,1007.44
2016-09-26T11:10:49.645Z,1007.43
2016-09-26T11:11:49.663Z,1007.44
2016-09-26T11:12:49.684Z,1007.42
2016-09-26T11:13:49.709Z,1007.43
2016-09-26T11:14:49.735Z,1007.43
2016-09-26T11:15:49.755Z,1007.45
2016-09-26T11:16:49.780Z,1007.44
2016-09-26T11:17:49.801Z,1007.41
2016-09-26T11:18:49.825Z,1007.43
2016-09-26T11:19:49.841Z,1007.4
2016-09-26T11:20:49.868Z,1007.4
2016-09-26T11:21:49.887Z,1007.42
2016-09-26T11:22:49.915Z,1007.44
2016-09-26T11:23:49.933Z,1007.45
2016-09-26T11:24:49.952Z,1007.45
2016-09-26T11:25:49.979Z,1007.42
2016-09-26T11:26:49.997Z,1007.47
2016-09-26T11:27:50.025Z,1007.41
2016-09-26T11:28:50.046Z,1007.42
2016-09-26T11:29:50.064Z,1007.47
2016-09-26T11:30:50.085Z,1007.41
2016-09-26T11:31:50.114Z,1007.43
2016-09-26T11:32:50.137Z,1007.42
2016-09-26T11:33:50.154Z,1007.44
2016-09-26T11:34:50.181Z,1007.41
2016-09-26T11:35:50.205Z,1007.39
2016-09-26T11:36:50.227Z,1007.38
2016-09-26T11:37:50.250Z,1007.41
2016-09-26T11:38:50.274Z,1007.39
2016-09-26T11:39:50.292Z,1007.39
2016-09-26T11:40:50.316Z,1007.38
2016-09-26T11:41:50.336Z,1007.35
2016-09-26T11:42:50.366Z,1007.29
2016-09-26T11:43:50.383Z,1007.33
2016-09-26T11:44:50.413Z,1007.3
2016-09-26T11:45:50.429Z,1007.31
2016-09-26T11:46:50.452Z,1007.3
2016-09-26T11:47:50.482Z,1007.27
2016-09-26T11:48:50.499Z,1007.31
2016-09-26T11:49:50.529Z,1007.29
2016-09-26T11:50:50.552Z,1007.27
2016-09-26T11:51:50.572Z,1007.23
2016-09-26T11:52:50.593Z,1007.24
2016-09-26T11:53:50.620Z,1007.23
2016-09-26T11:54:50.645Z,1007.28
2016-09-26T11:55:50.669Z,1007.24
2016-09-26T11:56:50.691Z,1007.26
2016-09-26T11:57:50.712Z,1007.26
2016-09-26T11:58:50.741Z,1007.24
2016-09-26T11:59:50.759Z,1007.21
2016-09-26T12:00:50.788Z,1007.2
2016-09-26T12:01:50.808Z,1007.21
2016-09-26T12:02:50.833Z,1007.19
2016-09-26T12:03:50.854Z,1007.2
2016-09-26T12:04:50.881Z,1007.17
2016-09-26T12:05:50.905Z,1007.22
2016-09-26T12:06:50.931Z,1007.19
2016-09-26T12:07:50.953Z,1007.24
2016-09-26T12:09:50.998Z,1007.22
2016-09-26T12:10:51.024Z,1007.24